createdAt,value
2022-12-12T00:00:05.530Z,1308.8240
2022-12-12T00:00:16.591Z,1306.2620
2022-12-12T00:00:27.624Z,1304.9850
2022-12-12T00:00:38.705Z,1304.9850
2022-12-12T00:00:49.831Z,1306.2620
2022-12-12T00:01:04.557Z,1311.3950
2022-12-12T00:01:16.111Z,1297.3760
2022-12-12T00:01:27.293Z,1306.2620
2022-12-12T00:01:38.464Z,1304.9850
2022-12-12T00:01:49.522Z,1298.6379
2022-12-12T00:02:00.604Z,1317.8680
2022-12-12T00:02:11.924Z,1311.3950
2022-12-12T00:02:23.122Z,1301.1700
2022-12-12T00:02:34.581Z,1303.7111
2022-12-12T00:02:45.751Z,1302.4390
2022-12-12T00:02:56.966Z,1301.1700
2022-12-12T00:03:08.293Z,1303.7111
2022-12-12T00:03:19.807Z,1306.2620
2022-12-12T00:03:31.060Z,1301.1700
2022-12-12T00:03:42.377Z,1306.2620
2022-12-12T00:03:53.718Z,1304.9850
2022-12-12T00:04:05.088Z,1302.4390
2022-12-12T00:04:16.255Z,1306.2620
2022-12-12T00:04:27.435Z,1303.7111
2022-12-12T00:04:38.665Z,1302.4390
2022-12-12T00:04:49.870Z,1315.2710
2022-12-12T00:05:01.055Z,1301.1700
2022-12-12T00:05:12.461Z,1306.2620
2022-12-12T00:05:23.786Z,1304.9850
2022-12-12T00:05:34.992Z,1306.2620
2022-12-12T00:05:46.151Z,1303.7111
2022-12-12T00:05:57.203Z,1296.1169
2022-12-12T00:06:08.242Z,1298.6379
2022-12-12T00:06:19.445Z,1308.8240
2022-12-12T00:06:30.625Z,1304.9850
2022-12-12T00:06:41.675Z,1304.9850
2022-12-12T00:06:52.754Z,1312.6840
2022-12-12T00:07:03.913Z,1299.9030
2022-12-12T00:07:15.121Z,1301.1700
2022-12-12T00:07:26.356Z,1304.9850
2022-12-12T00:07:37.600Z,1303.7111
2022-12-12T00:07:48.804Z,1303.7111
2022-12-12T00:08:00.068Z,1308.8240
2022-12-12T00:08:11.266Z,1301.1700
2022-12-12T00:08:22.508Z,1308.8240
2022-12-12T00:08:33.670Z,1299.9030
2022-12-12T00:08:44.752Z,1299.9030
2022-12-12T00:08:55.934Z,1306.2620
2022-12-12T00:09:07.115Z,1303.7111
2022-12-12T00:09:18.324Z,1298.6379
2022-12-12T00:09:29.514Z,1307.5420
2022-12-12T00:09:40.725Z,1298.6379
2022-12-12T00:09:51.796Z,1301.1700
2022-12-12T00:10:02.877Z,1301.1700
2022-12-12T00:10:14.003Z,1298.6379
2022-12-12T00:10:25.204Z,1299.9030
2022-12-12T00:10:36.385Z,1301.1700
2022-12-12T00:10:47.607Z,1299.9030
2022-12-12T00:10:58.664Z,1311.3950
2022-12-12T00:11:09.721Z,1303.7111
2022-12-12T00:11:20.898Z,1307.5420
2022-12-12T00:11:32.075Z,1303.7111
2022-12-12T00:11:43.277Z,1306.2620
2022-12-12T00:11:54.355Z,1308.8240
2022-12-12T00:12:05.438Z,1296.1169
2022-12-12T00:12:16.551Z,1308.8240
2022-12-12T00:12:27.775Z,1306.2620
2022-12-12T00:12:38.965Z,1307.5420
2022-12-12T00:12:50.162Z,1298.6379
2022-12-12T00:13:01.373Z,1304.9850
2022-12-12T00:13:12.552Z,1302.4390
2022-12-12T00:13:23.784Z,1306.2620
2022-12-12T00:13:34.951Z,1306.2620
2022-12-12T00:13:46.209Z,1306.2620
2022-12-12T00:13:57.354Z,1308.8240
2022-12-12T00:14:08.401Z,1302.4390
2022-12-12T00:14:19.472Z,1304.9850
2022-12-12T00:14:30.675Z,1308.8240
2022-12-12T00:14:41.874Z,1312.6840
2022-12-12T00:14:53.041Z,1301.1700
2022-12-12T00:15:04.275Z,1303.7111
2022-12-12T00:15:15.597Z,1311.3950
2022-12-12T00:15:26.705Z,1312.6840
2022-12-12T00:15:37.884Z,1298.6379
2022-12-12T00:15:49.072Z,1310.1080
2022-12-12T00:16:00.278Z,1308.8240
2022-12-12T00:16:11.373Z,1308.8240
2022-12-12T00:16:22.513Z,1306.2620
2022-12-12T00:16:33.645Z,1304.9850
2022-12-12T00:16:44.716Z,1311.3950
2022-12-12T00:16:55.905Z,1316.5680
2022-12-12T00:17:06.982Z,1308.8240
2022-12-12T00:17:18.032Z,1311.3950
2022-12-12T00:17:29.197Z,1303.7111
2022-12-12T00:17:40.401Z,1316.5680
2022-12-12T00:17:51.606Z,1303.7111
2022-12-12T00:18:02.793Z,1313.9760
2022-12-12T00:18:14.015Z,1299.9030
2022-12-12T00:18:25.275Z,1306.2620
2022-12-12T00:18:36.436Z,1307.5420
2022-12-12T00:18:47.656Z,1306.2620
2022-12-12T00:18:58.876Z,1308.8240
2022-12-12T00:19:10.024Z,1306.2620
2022-12-12T00:19:21.107Z,1311.3950
2022-12-12T00:19:32.192Z,1308.8240
2022-12-12T00:19:43.304Z,1307.5420
2022-12-12T00:19:54.485Z,1310.1080
2022-12-12T00:20:05.685Z,1319.1700
2022-12-12T00:20:16.896Z,1310.1080
2022-12-12T00:20:28.096Z,1328.3580
2022-12-12T00:20:39.311Z,1312.6840
2022-12-12T00:20:55.557Z,1308.8240
2022-12-12T00:21:07.464Z,1292.3521
2022-12-12T00:21:18.481Z,1306.2620
2022-12-12T00:21:29.555Z,1312.6840
2022-12-12T00:21:40.715Z,1303.7111
2022-12-12T00:21:51.921Z,1307.5420
2022-12-12T00:22:03.135Z,1312.6840
2022-12-12T00:22:14.315Z,1308.8240
2022-12-12T00:22:25.395Z,1316.5680
2022-12-12T00:22:36.466Z,1321.7820
2022-12-12T00:22:47.592Z,1313.9760
2022-12-12T00:22:58.804Z,1313.9760
2022-12-12T00:23:10.004Z,1313.9760
2022-12-12T00:23:21.215Z,1313.9760
2022-12-12T00:23:32.275Z,1313.9760
2022-12-12T00:23:43.395Z,1316.5680
2022-12-12T00:23:54.626Z,1316.5680
2022-12-12T00:24:05.747Z,1317.8680
2022-12-12T00:24:16.874Z,1316.5680
2022-12-12T00:24:28.082Z,1331.0070
2022-12-12T00:24:39.154Z,1316.5680
2022-12-12T00:24:50.271Z,1319.1700
2022-12-12T00:25:01.364Z,1315.2710
2022-12-12T00:25:12.845Z,1317.8680
2022-12-12T00:25:24.131Z,1325.7200
2022-12-12T00:25:35.295Z,1327.0380
2022-12-12T00:25:46.535Z,1315.2710
2022-12-12T00:25:57.698Z,1317.8680
2022-12-12T00:26:08.876Z,1321.7820
2022-12-12T00:26:20.045Z,1320.4750
2022-12-12T00:26:31.175Z,1320.4750
2022-12-12T00:26:42.242Z,1316.5680
2022-12-12T00:26:53.377Z,1316.5680
2022-12-12T00:27:04.433Z,1319.1700
2022-12-12T00:27:15.531Z,1327.0380
2022-12-12T00:27:26.694Z,1323.0920
2022-12-12T00:27:37.835Z,1317.8680
2022-12-12T00:27:48.916Z,1323.0920
2022-12-12T00:28:00.009Z,1327.0380
2022-12-12T00:28:11.115Z,1333.6660
2022-12-12T00:28:22.189Z,1325.7200
2022-12-12T00:28:33.261Z,1324.4050
2022-12-12T00:28:44.399Z,1327.0380
2022-12-12T00:28:55.491Z,1323.0920
2022-12-12T00:29:06.555Z,1325.7200
2022-12-12T00:29:17.686Z,1329.6810
2022-12-12T00:29:28.873Z,1321.7820
2022-12-12T00:29:40.115Z,1332.3350
2022-12-12T00:29:51.275Z,1333.6660
2022-12-12T00:30:02.362Z,1341.7090
2022-12-12T00:30:13.490Z,1328.3580
2022-12-12T00:30:24.555Z,1327.0380
2022-12-12T00:30:35.756Z,1332.3350
2022-12-12T00:30:46.990Z,1332.3350
2022-12-12T00:30:58.190Z,1332.3350
2022-12-12T00:31:09.291Z,1332.3350
2022-12-12T00:31:20.418Z,1337.6750
2022-12-12T00:31:31.561Z,1337.6750
2022-12-12T00:31:42.642Z,1335.0000
2022-12-12T00:31:53.844Z,1337.6750
2022-12-12T00:32:05.028Z,1333.6660
2022-12-12T00:32:16.115Z,1335.0000
2022-12-12T00:32:27.181Z,1332.3350
2022-12-12T00:32:38.325Z,1336.3361
2022-12-12T00:32:49.567Z,1335.0000
2022-12-12T00:33:00.716Z,1339.0170
2022-12-12T00:33:11.926Z,1340.3610
2022-12-12T00:33:23.145Z,1337.6750
2022-12-12T00:33:34.325Z,1336.3361
2022-12-12T00:33:45.525Z,1340.3610
2022-12-12T00:33:56.831Z,1340.3610
2022-12-12T00:34:07.925Z,1340.3610
2022-12-12T00:34:18.966Z,1328.3580
2022-12-12T00:34:30.011Z,1335.0000
2022-12-12T00:34:41.207Z,1340.3610
2022-12-12T00:34:52.275Z,1341.7090
2022-12-12T00:35:03.355Z,1341.7090
2022-12-12T00:35:14.711Z,1340.3610
2022-12-12T00:35:26.008Z,1337.6750
2022-12-12T00:35:37.206Z,1340.3610
2022-12-12T00:35:48.403Z,1345.7660
2022-12-12T00:35:59.626Z,1348.4850
2022-12-12T00:36:10.815Z,1347.1240
2022-12-12T00:36:21.861Z,1339.0170
2022-12-12T00:36:32.936Z,1345.7660
2022-12-12T00:36:44.076Z,1347.1240
2022-12-12T00:36:55.336Z,1348.4850
2022-12-12T00:37:06.485Z,1348.4850
2022-12-12T00:37:17.695Z,1348.4850
2022-12-12T00:37:28.755Z,1345.7660
2022-12-12T00:37:39.879Z,1349.8480
2022-12-12T00:37:51.025Z,1353.9550
2022-12-12T00:38:02.185Z,1351.2150
2022-12-12T00:38:13.373Z,1351.2150
2022-12-12T00:38:24.564Z,1353.9550
2022-12-12T00:38:35.776Z,1347.1240
2022-12-12T00:38:46.949Z,1351.2150
2022-12-12T00:38:58.217Z,1351.2150
2022-12-12T00:39:13.811Z,1353.9550
2022-12-12T00:39:26.325Z,1332.3350
2022-12-12T00:39:37.525Z,1340.3610
2022-12-12T00:39:48.715Z,1340.3610
2022-12-12T00:39:59.965Z,1352.5840
2022-12-12T00:40:11.143Z,1348.4850
2022-12-12T00:40:22.241Z,1340.3610
2022-12-12T00:40:33.337Z,1352.5840
2022-12-12T00:40:44.396Z,1349.8480
2022-12-12T00:40:55.656Z,1345.7660
2022-12-12T00:41:06.795Z,1360.8560
2022-12-12T00:41:17.999Z,1353.9550
2022-12-12T00:41:29.065Z,1351.2150
2022-12-12T00:41:40.156Z,1359.4700
2022-12-12T00:41:51.282Z,1351.2150
2022-12-12T00:42:02.536Z,1351.2150
2022-12-12T00:42:13.695Z,1353.9550
2022-12-12T00:42:24.872Z,1353.9550
2022-12-12T00:42:35.922Z,1352.5840
2022-12-12T00:42:46.965Z,1367.8280
2022-12-12T00:42:58.152Z,1353.9550
2022-12-12T00:43:09.370Z,1356.7070
2022-12-12T00:43:20.551Z,1356.7070
2022-12-12T00:43:31.775Z,1351.2150
2022-12-12T00:43:43.011Z,1356.7070
2022-12-12T00:43:54.152Z,1359.4700
2022-12-12T00:44:05.426Z,1351.2150
2022-12-12T00:44:16.552Z,1360.8560
2022-12-12T00:44:27.655Z,1359.4700
2022-12-12T00:44:38.771Z,1360.8560
2022-12-12T00:44:49.861Z,1373.4570
2022-12-12T00:45:01.047Z,1362.2450
2022-12-12T00:45:12.684Z,1366.4280
2022-12-12T00:45:23.886Z,1365.0310
2022-12-12T00:45:35.037Z,1367.8280
2022-12-12T00:45:46.165Z,1363.6360
2022-12-12T00:45:57.412Z,1358.0870
2022-12-12T00:46:08.616Z,1359.4700
2022-12-12T00:46:19.802Z,1365.0310
2022-12-12T00:46:31.006Z,1359.4700
2022-12-12T00:46:42.197Z,1362.2450
2022-12-12T00:46:53.455Z,1356.7070
2022-12-12T00:47:04.552Z,1365.0310
2022-12-12T00:47:15.784Z,1367.8280
2022-12-12T00:47:26.973Z,1367.8280
2022-12-12T00:47:38.035Z,1365.0310
2022-12-12T00:47:49.123Z,1366.4280
2022-12-12T00:48:00.242Z,1367.8280
2022-12-12T00:48:11.428Z,1376.2889
2022-12-12T00:48:22.560Z,1370.6370
2022-12-12T00:48:33.646Z,1377.7090
2022-12-12T00:48:44.720Z,1367.8280
2022-12-12T00:48:55.982Z,1370.6370
2022-12-12T00:49:07.145Z,1376.2889
2022-12-12T00:49:18.305Z,1370.6370
2022-12-12T00:49:29.372Z,1370.6370
2022-12-12T00:49:40.426Z,1373.4570
2022-12-12T00:49:51.592Z,1370.6370
2022-12-12T00:50:02.794Z,1367.8280
2022-12-12T00:50:14.006Z,1373.4570
2022-12-12T00:50:25.193Z,1373.4570
2022-12-12T00:50:36.405Z,1366.4280
2022-12-12T00:50:47.466Z,1369.2310
2022-12-12T00:50:58.550Z,1381.9880
2022-12-12T00:51:09.674Z,1374.8710
2022-12-12T00:51:20.903Z,1376.2889
2022-12-12T00:51:32.106Z,1379.1320
2022-12-12T00:51:43.274Z,1376.2889
2022-12-12T00:51:54.365Z,1374.8710
2022-12-12T00:52:05.465Z,1374.8710
2022-12-12T00:52:16.555Z,1373.4570
2022-12-12T00:52:27.775Z,1381.9880
2022-12-12T00:52:38.965Z,1384.8550
2022-12-12T00:52:50.178Z,1376.2889
2022-12-12T00:53:01.261Z,1373.4570
2022-12-12T00:53:12.355Z,1373.4570
2022-12-12T00:53:23.447Z,1379.1320
2022-12-12T00:53:34.634Z,1376.2889
2022-12-12T00:53:45.824Z,1392.0750
2022-12-12T00:53:57.044Z,1379.1320
2022-12-12T00:54:08.146Z,1370.6370
2022-12-12T00:54:19.207Z,1380.5580
2022-12-12T00:54:30.322Z,1379.1320
2022-12-12T00:54:41.523Z,1376.2889
2022-12-12T00:54:52.556Z,1372.0450
2022-12-12T00:55:03.637Z,1381.9880
2022-12-12T00:55:15.024Z,1376.2889
2022-12-12T00:55:26.337Z,1392.0750
2022-12-12T00:55:37.522Z,1393.5280
2022-12-12T00:55:48.725Z,1380.5580
2022-12-12T00:55:59.928Z,1383.4200
2022-12-12T00:56:10.994Z,1380.5580
2022-12-12T00:56:22.087Z,1383.4200
2022-12-12T00:56:33.222Z,1379.1320
2022-12-12T00:56:44.418Z,1377.7090
2022-12-12T00:56:55.595Z,1381.9880
2022-12-12T00:57:06.655Z,1376.2889
2022-12-12T00:57:17.711Z,1384.8550
2022-12-12T00:57:28.883Z,1381.9880
2022-12-12T00:57:40.086Z,1379.1320
2022-12-12T00:57:51.284Z,1389.1780
2022-12-12T00:58:02.487Z,1383.4200
2022-12-12T00:58:13.675Z,1383.4200
2022-12-12T00:58:24.722Z,1389.1780
2022-12-12T00:58:35.805Z,1381.9880
2022-12-12T00:58:46.995Z,1383.4200
2022-12-12T00:58:58.184Z,1379.1320
2022-12-12T00:59:09.437Z,1386.2930
2022-12-12T00:59:20.585Z,1379.1320
2022-12-12T00:59:31.664Z,1392.0750
2022-12-12T00:59:42.746Z,1374.8710
2022-12-12T00:59:53.846Z,1384.8550
2022-12-12T01:00:05.032Z,1387.7340
2022-12-12T01:00:16.255Z,1383.4200
2022-12-12T01:00:27.436Z,1381.9880
2022-12-12T01:00:38.512Z,1387.7340
2022-12-12T01:00:49.592Z,1393.5280
2022-12-12T01:01:00.715Z,1387.7340
2022-12-12T01:01:12.086Z,1387.7340
2022-12-12T01:01:23.189Z,1399.3710
2022-12-12T01:01:34.310Z,1389.1780
2022-12-12T01:01:45.451Z,1390.6250
2022-12-12T01:01:56.619Z,1390.6250
2022-12-12T01:02:07.802Z,1381.9880
2022-12-12T01:02:21.330Z,1387.7340
2022-12-12T01:02:35.924Z,1381.9880
2022-12-12T01:02:47.119Z,1381.9880
2022-12-12T01:02:58.284Z,1384.8550
2022-12-12T01:03:09.548Z,1387.7340
2022-12-12T01:03:20.973Z,1384.8550
2022-12-12T01:03:32.065Z,1387.7340
2022-12-12T01:03:43.130Z,1384.8550
2022-12-12T01:03:54.196Z,1387.7340
2022-12-12T01:04:05.362Z,1387.7340
2022-12-12T01:04:16.595Z,1392.0750
2022-12-12T01:04:27.767Z,1396.4440
2022-12-12T01:04:38.956Z,1386.2930
2022-12-12T01:04:50.025Z,1396.4440
2022-12-12T01:05:01.076Z,1387.7340
2022-12-12T01:05:12.508Z,1387.7340
2022-12-12T01:05:23.795Z,1399.3710
2022-12-12T01:05:34.966Z,1384.8550
2022-12-12T01:05:46.146Z,1390.6250
2022-12-12T01:05:57.366Z,1390.6250
2022-12-12T01:06:08.455Z,1396.4440
2022-12-12T01:06:19.535Z,1387.7340
2022-12-12T01:06:30.683Z,1392.0750
2022-12-12T01:06:41.857Z,1384.8550
2022-12-12T01:06:52.957Z,1390.6250
2022-12-12T01:07:04.077Z,1392.0750
2022-12-12T01:07:15.146Z,1392.0750
2022-12-12T01:07:26.335Z,1393.5280
2022-12-12T01:07:37.565Z,1394.9840
2022-12-12T01:07:48.752Z,1384.8550
2022-12-12T01:07:59.854Z,1393.5280
2022-12-12T01:08:10.961Z,1390.6250
2022-12-12T01:08:22.090Z,1390.6250
2022-12-12T01:08:33.205Z,1392.0750
2022-12-12T01:08:44.359Z,1393.5280
2022-12-12T01:08:55.609Z,1390.6250
2022-12-12T01:09:06.666Z,1392.0750
2022-12-12T01:09:17.783Z,1393.5280
2022-12-12T01:09:28.882Z,1397.9060
2022-12-12T01:09:40.085Z,1393.5280
2022-12-12T01:09:51.267Z,1396.4440
2022-12-12T01:10:02.486Z,1392.0750
2022-12-12T01:10:13.556Z,1405.2629
2022-12-12T01:10:24.635Z,1384.8550
2022-12-12T01:10:35.758Z,1393.5280
2022-12-12T01:10:46.969Z,1396.4440
2022-12-12T01:10:58.167Z,1396.4440
2022-12-12T01:11:09.231Z,1396.4440
2022-12-12T01:11:20.314Z,1400.8390
2022-12-12T01:11:31.442Z,1409.7150
2022-12-12T01:11:42.635Z,1394.9840
2022-12-12T01:11:53.876Z,1394.9840
2022-12-12T01:12:05.035Z,1397.9060
2022-12-12T01:12:16.255Z,1397.9060
2022-12-12T01:12:27.425Z,1399.3710
2022-12-12T01:12:38.655Z,1394.9840
2022-12-12T01:12:49.894Z,1402.3110
2022-12-12T01:13:01.057Z,1393.5280
2022-12-12T01:13:12.245Z,1397.9060
2022-12-12T01:13:23.447Z,1393.5280
2022-12-12T01:13:34.632Z,1403.7860
2022-12-12T01:13:45.847Z,1393.5280
2022-12-12T01:13:57.037Z,1397.9060
2022-12-12T01:14:08.065Z,1397.9060
2022-12-12T01:14:19.165Z,1396.4440
2022-12-12T01:14:30.315Z,1393.5280
2022-12-12T01:14:41.512Z,1400.8390
2022-12-12T01:14:52.562Z,1396.4440
2022-12-12T01:15:03.601Z,1399.3710
2022-12-12T01:15:15.104Z,1400.8390
2022-12-12T01:15:26.352Z,1396.4440
2022-12-12T01:15:37.522Z,1408.2280
2022-12-12T01:15:48.782Z,1399.3710
2022-12-12T01:16:00.029Z,1399.3710
2022-12-12T01:16:11.300Z,1397.9060
2022-12-12T01:16:22.409Z,1399.3710
2022-12-12T01:16:33.609Z,1397.9060
2022-12-12T01:16:44.735Z,1390.6250
2022-12-12T01:16:55.804Z,1402.3110
2022-12-12T01:17:06.927Z,1405.2629
2022-12-12T01:17:18.053Z,1403.7860
2022-12-12T01:17:29.136Z,1400.8390
2022-12-12T01:17:40.225Z,1402.3110
2022-12-12T01:17:51.313Z,1402.3110
2022-12-12T01:18:02.525Z,1405.2629
2022-12-12T01:18:13.696Z,1400.8390
2022-12-12T01:18:24.898Z,1406.7440
2022-12-12T01:18:36.072Z,1405.2629
2022-12-12T01:18:47.285Z,1399.3710
2022-12-12T01:18:58.475Z,1402.3110
2022-12-12T01:19:09.685Z,1399.3710
2022-12-12T01:19:20.912Z,1402.3110
2022-12-12T01:19:31.954Z,1394.9840
2022-12-12T01:19:43.023Z,1402.3110
2022-12-12T01:19:54.156Z,1403.7860
2022-12-12T01:20:05.354Z,1405.2629
2022-12-12T01:20:16.567Z,1389.1780
2022-12-12T01:20:27.747Z,1392.0750
2022-12-12T01:20:38.965Z,1399.3710
2022-12-12T01:20:50.152Z,1403.7860
2022-12-12T01:21:01.367Z,1399.3710
2022-12-12T01:21:12.546Z,1402.3110
2022-12-12T01:21:23.765Z,1399.3710
2022-12-12T01:21:34.856Z,1403.7860
2022-12-12T01:21:45.912Z,1402.3110
2022-12-12T01:21:57.051Z,1402.3110
2022-12-12T01:22:08.104Z,1411.2050
2022-12-12T01:22:19.165Z,1405.2629
2022-12-12T01:22:30.325Z,1412.6980
2022-12-12T01:22:41.417Z,1397.9060
2022-12-12T01:22:52.522Z,1402.3110
2022-12-12T01:23:03.617Z,1408.2280
2022-12-12T01:23:14.795Z,1403.7860
2022-12-12T01:23:25.993Z,1402.3110
2022-12-12T01:23:37.203Z,1397.9060
2022-12-12T01:23:48.271Z,1402.3110
2022-12-12T01:23:59.342Z,1402.3110
2022-12-12T01:24:10.392Z,1408.2280
2022-12-12T01:24:21.498Z,1402.3110
2022-12-12T01:24:32.562Z,1406.7440
2022-12-12T01:24:43.774Z,1405.2629
2022-12-12T01:24:54.837Z,1397.9060
2022-12-12T01:25:05.933Z,1403.7860
2022-12-12T01:25:17.053Z,1411.2050
2022-12-12T01:25:28.246Z,1405.2629
2022-12-12T01:25:39.352Z,1402.3110
2022-12-12T01:25:50.433Z,1405.2629
2022-12-12T01:26:01.505Z,1397.9060
2022-12-12T01:26:12.724Z,1408.2280
2022-12-12T01:26:23.787Z,1406.7440
2022-12-12T01:26:34.863Z,1408.2280
2022-12-12T01:26:46.003Z,1412.6980
2022-12-12T01:26:57.203Z,1405.2629
2022-12-12T01:27:08.397Z,1405.2629
2022-12-12T01:27:19.602Z,1405.2629
2022-12-12T01:27:30.796Z,1405.2629
2022-12-12T01:27:41.852Z,1403.7860
2022-12-12T01:27:52.906Z,1402.3110
2022-12-12T01:28:03.975Z,1415.6949
2022-12-12T01:28:15.079Z,1406.7440
2022-12-12T01:28:26.183Z,1406.7440
2022-12-12T01:28:37.353Z,1402.3110
2022-12-12T01:28:48.597Z,1408.2280
2022-12-12T01:28:59.754Z,1400.8390
2022-12-12T01:29:10.847Z,1405.2629
2022-12-12T01:29:21.965Z,1405.2629
2022-12-12T01:29:33.045Z,1406.7440
2022-12-12T01:29:44.255Z,1409.7150
2022-12-12T01:29:55.465Z,1396.4440
2022-12-12T01:30:06.654Z,1397.9060
2022-12-12T01:30:17.712Z,1402.3110
2022-12-12T01:30:28.754Z,1403.7860
2022-12-12T01:30:39.927Z,1403.7860
2022-12-12T01:30:51.112Z,1394.9840
2022-12-12T01:31:02.367Z,1405.2629
2022-12-12T01:31:13.571Z,1399.3710
2022-12-12T01:31:24.784Z,1397.9060
2022-12-12T01:31:36.010Z,1400.8390
2022-12-12T01:31:47.227Z,1405.2629
2022-12-12T01:31:58.311Z,1402.3110
2022-12-12T01:32:09.532Z,1402.3110
2022-12-12T01:32:20.592Z,1406.7440
2022-12-12T01:32:31.655Z,1405.2629
2022-12-12T01:32:42.746Z,1400.8390
2022-12-12T01:32:53.992Z,1406.7440
2022-12-12T01:33:05.215Z,1408.2280
2022-12-12T01:33:16.395Z,1392.0750
2022-12-12T01:33:27.587Z,1403.7860
2022-12-12T01:33:38.805Z,1402.3110
2022-12-12T01:33:49.984Z,1408.2280
2022-12-12T01:34:01.204Z,1405.2629
2022-12-12T01:34:12.392Z,1403.7860
2022-12-12T01:34:23.648Z,1400.8390
2022-12-12T01:34:34.712Z,1408.2280
2022-12-12T01:34:45.785Z,1402.3110
2022-12-12T01:34:56.872Z,1418.7040
2022-12-12T01:35:08.084Z,1399.3710
2022-12-12T01:35:19.272Z,1400.8390
2022-12-12T01:35:30.482Z,1403.7860
2022-12-12T01:35:41.688Z,1405.2629
2022-12-12T01:35:52.727Z,1399.3710
2022-12-12T01:36:03.795Z,1400.8390
2022-12-12T01:36:14.966Z,1403.7860
2022-12-12T01:36:26.036Z,1392.0750
2022-12-12T01:36:37.165Z,1402.3110
2022-12-12T01:36:48.302Z,1403.7860
2022-12-12T01:36:59.445Z,1402.3110
2022-12-12T01:37:10.635Z,1406.7440
2022-12-12T01:37:21.843Z,1396.4440
2022-12-12T01:37:32.922Z,1411.2050
2022-12-12T01:37:44.002Z,1405.2629
2022-12-12T01:37:55.071Z,1406.7440
2022-12-12T01:38:06.325Z,1408.2280
2022-12-12T01:38:17.525Z,1409.7150
2022-12-12T01:38:28.725Z,1408.2280
2022-12-12T01:38:39.792Z,1409.7150
2022-12-12T01:38:50.853Z,1408.2280
2022-12-12T01:39:02.003Z,1403.7860
2022-12-12T01:39:13.205Z,1406.7440
2022-12-12T01:39:24.506Z,1405.2629
2022-12-12T01:39:35.608Z,1403.7860
2022-12-12T01:39:46.845Z,1405.2629
2022-12-12T01:39:58.006Z,1399.3710
2022-12-12T01:40:09.191Z,1403.7860
2022-12-12T01:40:20.416Z,1397.9060
2022-12-12T01:40:31.596Z,1405.2629
2022-12-12T01:40:42.662Z,1405.2629
2022-12-12T01:40:53.751Z,1392.0750
2022-12-12T01:41:04.891Z,1405.2629
2022-12-12T01:41:16.088Z,1411.2050
2022-12-12T01:41:27.289Z,1408.2280
2022-12-12T01:41:38.472Z,1406.7440
2022-12-12T01:41:49.511Z,1405.2629
2022-12-12T01:42:00.576Z,1406.7440
2022-12-12T01:42:11.765Z,1408.2280
2022-12-12T01:42:22.865Z,1397.9060
2022-12-12T01:42:33.954Z,1414.1949
2022-12-12T01:42:45.056Z,1406.7440
2022-12-12T01:42:56.135Z,1411.2050
2022-12-12T01:43:07.235Z,1408.2280
2022-12-12T01:43:18.335Z,1405.2629
2022-12-12T01:43:29.513Z,1408.2280
2022-12-12T01:43:40.735Z,1405.2629
2022-12-12T01:43:51.939Z,1411.2050
2022-12-12T01:44:03.157Z,1411.2050
2022-12-12T01:44:14.315Z,1405.2629
2022-12-12T01:44:25.585Z,1411.2050
2022-12-12T01:44:36.747Z,1408.2280
2022-12-12T01:44:47.933Z,1415.6949
2022-12-12T01:44:59.012Z,1406.7440
2022-12-12T01:45:10.190Z,1406.7440
2022-12-12T01:45:21.512Z,1397.9060
2022-12-12T01:45:32.765Z,1408.2280
2022-12-12T01:45:43.927Z,1409.7150
2022-12-12T01:45:55.003Z,1399.3710
2022-12-12T01:46:06.085Z,1400.8390
2022-12-12T01:46:17.251Z,1412.6980
2022-12-12T01:46:28.458Z,1412.6980
2022-12-12T01:46:39.638Z,1408.2280
2022-12-12T01:46:50.851Z,1411.2050
2022-12-12T01:47:01.964Z,1405.2629
2022-12-12T01:47:13.005Z,1414.1949
2022-12-12T01:47:24.099Z,1415.6949
2022-12-12T01:47:35.273Z,1408.2280
2022-12-12T01:47:46.387Z,1411.2050
2022-12-12T01:48:03.440Z,1408.2280
2022-12-12T01:48:14.436Z,1399.3710
2022-12-12T01:48:25.512Z,1394.9840
2022-12-12T01:48:36.566Z,1390.6250
2022-12-12T01:48:47.637Z,1405.2629
2022-12-12T01:48:58.795Z,1411.2050
2022-12-12T01:49:09.855Z,1396.4440
2022-12-12T01:49:20.944Z,1400.8390
2022-12-12T01:49:32.215Z,1408.2280
2022-12-12T01:49:43.286Z,1405.2629
2022-12-12T01:49:54.472Z,1405.2629
2022-12-12T01:50:05.676Z,1402.3110
2022-12-12T01:50:16.873Z,1408.2280
2022-12-12T01:50:28.096Z,1414.1949
2022-12-12T01:50:39.285Z,1397.9060
2022-12-12T01:50:50.493Z,1402.3110
2022-12-12T01:51:01.683Z,1402.3110
2022-12-12T01:51:12.727Z,1405.2629
2022-12-12T01:51:23.825Z,1412.6980
2022-12-12T01:51:34.977Z,1408.2280
2022-12-12T01:51:46.095Z,1408.2280
2022-12-12T01:51:57.189Z,1408.2280
2022-12-12T01:52:08.242Z,1411.2050
2022-12-12T01:52:19.315Z,1411.2050
2022-12-12T01:52:30.556Z,1409.7150
2022-12-12T01:52:41.656Z,1408.2280
2022-12-12T01:52:52.723Z,1405.2629
2022-12-12T01:53:03.945Z,1408.2280
2022-12-12T01:53:15.017Z,1411.2050
2022-12-12T01:53:26.175Z,1411.2050
2022-12-12T01:53:37.336Z,1420.2130
2022-12-12T01:53:48.478Z,1408.2280
2022-12-12T01:53:59.646Z,1414.1949
2022-12-12T01:54:10.812Z,1414.1949
2022-12-12T01:54:22.005Z,1406.7440
2022-12-12T01:54:33.245Z,1412.6980
2022-12-12T01:54:44.390Z,1408.2280
2022-12-12T01:54:55.595Z,1415.6949
2022-12-12T01:55:06.786Z,1414.1949
2022-12-12T01:55:17.836Z,1406.7440
2022-12-12T01:55:28.892Z,1406.7440
2022-12-12T01:55:40.087Z,1414.1949
2022-12-12T01:55:51.273Z,1414.1949
2022-12-12T01:56:02.489Z,1414.1949
2022-12-12T01:56:13.673Z,1408.2280
2022-12-12T01:56:24.886Z,1411.2050
2022-12-12T01:56:36.074Z,1405.2629
2022-12-12T01:56:47.134Z,1406.7440
2022-12-12T01:56:58.234Z,1408.2280
2022-12-12T01:57:09.379Z,1399.3710
2022-12-12T01:57:20.433Z,1414.1949
2022-12-12T01:57:31.475Z,1424.7600
2022-12-12T01:57:42.632Z,1415.6949
2022-12-12T01:57:53.845Z,1412.6980
2022-12-12T01:58:05.032Z,1412.6980
2022-12-12T01:58:16.251Z,1406.7440
2022-12-12T01:58:27.442Z,1414.1949
2022-12-12T01:58:38.483Z,1420.2130
2022-12-12T01:58:49.551Z,1414.1949
2022-12-12T01:59:00.727Z,1417.1970
2022-12-12T01:59:11.921Z,1414.1949
2022-12-12T01:59:22.965Z,1405.2629
2022-12-12T01:59:34.072Z,1414.1949
2022-12-12T01:59:45.112Z,1418.7040
2022-12-12T01:59:56.175Z,1415.6949
2022-12-12T02:00:07.275Z,1414.1949
2022-12-12T02:00:18.476Z,1415.6949
2022-12-12T02:00:29.729Z,1417.1970
2022-12-12T02:00:40.941Z,1414.1949
2022-12-12T02:00:52.088Z,1409.7150
2022-12-12T02:01:03.319Z,1417.1970
2022-12-12T02:01:14.474Z,1418.7040
2022-12-12T02:01:25.676Z,1411.2050
2022-12-12T02:01:36.992Z,1417.1970
2022-12-12T02:01:48.221Z,1418.7040
2022-12-12T02:01:59.350Z,1414.1949
2022-12-12T02:02:10.572Z,1417.1970
2022-12-12T02:02:21.813Z,1414.1949
2022-12-12T02:02:32.874Z,1417.1970
2022-12-12T02:02:44.074Z,1414.1949
2022-12-12T02:02:55.277Z,1417.1970
2022-12-12T02:03:06.468Z,1414.1949
2022-12-12T02:03:17.686Z,1417.1970
2022-12-12T02:03:28.752Z,1417.1970
2022-12-12T02:03:39.817Z,1417.1970
2022-12-12T02:03:50.866Z,1420.2130
2022-12-12T02:04:01.945Z,1417.1970
2022-12-12T02:04:13.025Z,1414.1949
2022-12-12T02:04:24.245Z,1418.7040
2022-12-12T02:04:35.489Z,1423.2410
2022-12-12T02:04:46.654Z,1421.7250
2022-12-12T02:04:57.712Z,1417.1970
2022-12-12T02:05:08.809Z,1420.2130
2022-12-12T02:05:19.925Z,1415.6949
2022-12-12T02:05:31.165Z,1426.2820
2022-12-12T02:05:42.228Z,1423.2410
2022-12-12T02:05:53.275Z,1420.2130
2022-12-12T02:06:04.316Z,1423.2410
2022-12-12T02:06:15.395Z,1421.7250
2022-12-12T02:06:26.472Z,1426.2820
2022-12-12T02:06:37.705Z,1420.2130
2022-12-12T02:06:48.745Z,1426.2820
2022-12-12T02:06:59.812Z,1420.2130
2022-12-12T02:07:10.903Z,1426.2820
2022-12-12T02:07:21.953Z,1423.2410
2022-12-12T02:07:33.036Z,1430.8680
2022-12-12T02:07:44.242Z,1424.7600